Time;durP1;ratioP1;P1;durP2;ratioP2;P2;SDS_P1;SDS_P2;PMS_P1;PMS_P2;Temp;Humidity;BMP_temperature;BMP_pressure;BME280_temperature;BME280_humidity;BME280_pressure;Samples;Min_cycle;Max_cycle;Signal;HPM_P1;HPM_P2
2023/06/15 00:00:34;;;;;;;57.20;2.50;;;;;;;;;;5071553;28;20810;-67
2023/06/15 00:03:01;;;;;;;58.53;2.87;;;;;;;;;;5072344;28;20561;-67
2023/06/15 00:05:28;;;;;;;57.37;2.30;;;;;;;;;;5071911;28;20455;-67
2023/06/15 00:07:56;;;;;;;57.27;2.40;;;;;;;;;;5072510;28;20821;-66
2023/06/15 00:10:23;;;;;;;57.60;2.70;;;;;;;;;;5071341;28;20489;-67
2023/06/15 00:12:51;;;;;;;57.37;2.30;;;;;;;;;;5072297;28;20468;-67
2023/06/15 00:15:19;;;;;;;57.17;2.67;;;;;;;;;;5071838;28;20962;-66
2023/06/15 00:17:46;;;;;;;57.20;2.47;;;;;;;;;;5072381;28;20443;-66
2023/06/15 00:20:14;;;;;;;57.17;2.50;;;;;;;;;;5071336;28;20447;-67
2023/06/15 00:22:41;;;;;;;57.50;2.57;;;;;;;;;;5071686;28;20479;-67
2023/06/15 00:25:09;;;;;;;56.97;2.23;;;;;;;;;;5071832;28;20539;-67
2023/06/15 00:27:36;;;;;;;56.87;2.40;;;;;;;;;;5071995;28;20443;-67
2023/06/15 00:30:03;;;;;;;57.10;2.40;;;;;;;;;;5071299;28;20490;-67
2023/06/15 00:32:32;;;;;;;57.10;2.40;;;;;;;;;;5071896;28;20478;-67
2023/06/15 00:34:59;;;;;;;57.40;2.73;;;;;;;;;;5071536;28;20457;-67
2023/06/15 00:37:26;;;;;;;57.27;2.40;;;;;;;;;;5071389;28;20478;-67
2023/06/15 00:39:53;;;;;;;57.20;2.10;;;;;;;;;;5070745;28;20443;-67
2023/06/15 00:42:20;;;;;;;56.97;2.20;;;;;;;;;;5071655;28;20454;-67
2023/06/15 00:44:47;;;;;;;57.33;2.30;;;;;;;;;;5071470;28;20455;-67
2023/06/15 00:47:15;;;;;;;56.97;2.20;;;;;;;;;;5071926;28;20813;-66
2023/06/15 00:49:44;;;;;;;58.00;2.77;;;;;;;;;;5070837;28;20506;-67
2023/06/15 00:52:12;;;;;;;57.07;2.10;;;;;;;;;;5071428;28;20450;-67
2023/06/15 00:54:40;;;;;;;56.97;2.40;;;;;;;;;;5071565;28;20458;-67
2023/06/15 00:57:08;;;;;;;57.37;2.33;;;;;;;;;;5071728;28;20865;-66
2023/06/15 00:59:35;;;;;;;57.20;2.30;;;;;;;;;;5070462;28;20448;-66
2023/06/15 01:02:03;;;;;;;57.50;2.57;;;;;;;;;;5071267;28;20458;-67
2023/06/15 01:04:30;;;;;;;57.40;2.33;;;;;;;;;;5071467;28;20528;-66
2023/06/15 01:07:02;;;;;;;56.97;2.37;;;;;;;;;;5071524;28;20454;-66
2023/06/15 01:09:29;;;;;;;57.17;2.30;;;;;;;;;;5070743;28;20999;-66
2023/06/15 01:11:58;;;;;;;57.00;2.20;;;;;;;;;;5071354;28;20818;-67
2023/06/15 01:14:26;;;;;;;57.27;2.50;;;;;;;;;;5071225;28;20483;-67
2023/06/15 01:16:57;;;;;;;57.10;2.17;;;;;;;;;;5067833;28;20456;-66
2023/06/15 01:19:31;;;;;;;58.37;4.00;;;;;;;;;;5070503;28;20436;-67
2023/06/15 01:22:02;;;;;;;57.47;2.43;;;;;;;;;;5071287;28;20505;-66
2023/06/15 01:24:35;;;;;;;57.03;2.20;;;;;;;;;;5071042;28;20459;-67
2023/06/15 01:27:04;;;;;;;57.20;2.30;;;;;;;;;;5070875;28;20547;-67
2023/06/15 01:29:34;;;;;;;57.27;2.93;;;;;;;;;;5070410;28;20549;-66
2023/06/15 01:32:02;;;;;;;57.80;2.90;;;;;;;;;;5071497;28;20451;-69
2023/06/15 01:34:29;;;;;;;57.30;2.40;;;;;;;;;;5070827;28;20474;-69
2023/06/15 01:36:56;;;;;;;57.13;2.70;;;;;;;;;;5070899;28;20863;-68
2023/06/15 01:39:23;;;;;;;58.37;3.53;;;;;;;;;;5070425;28;20462;-68
2023/06/15 01:41:51;;;;;;;57.40;2.40;;;;;;;;;;5071088;28;20811;-68
2023/06/15 01:44:20;;;;;;;57.57;2.40;;;;;;;;;;5070872;28;20463;-68
2023/06/15 01:46:47;;;;;;;57.27;2.90;;;;;;;;;;5070912;28;20789;-68
2023/06/15 01:49:14;;;;;;;57.40;2.73;;;;;;;;;;5070915;28;20458;-69
2023/06/15 01:51:42;;;;;;;57.90;2.70;;;;;;;;;;5074625;28;20534;-69
2023/06/15 01:54:09;;;;;;;58.27;3.03;;;;;;;;;;5074849;28;20475;-68
2023/06/15 01:56:36;;;;;;;57.30;2.40;;;;;;;;;;5071290;28;20540;-69
2023/06/15 01:59:03;;;;;;;57.27;2.70;;;;;;;;;;5074273;28;20451;-68
2023/06/15 02:01:31;;;;;;;59.90;3.10;;;;;;;;;;5074582;28;20439;-68
2023/06/15 02:03:58;;;;;;;57.37;2.60;;;;;;;;;;5074711;28;20474;-68
2023/06/15 02:06:25;;;;;;;57.40;2.50;;;;;;;;;;5074461;28;20454;-69
2023/06/15 02:08:53;;;;;;;57.47;2.83;;;;;;;;;;5073581;28;20963;-68
2023/06/15 02:11:20;;;;;;;57.20;2.40;;;;;;;;;;5074277;28;21000;-68
2023/06/15 02:13:47;;;;;;;57.30;2.47;;;;;;;;;;5074421;28;20470;-69
2023/06/15 02:16:15;;;;;;;57.30;2.67;;;;;;;;;;5074033;28;20795;-69
2023/06/15 02:18:44;;;;;;;57.40;2.47;;;;;;;;;;5073710;28;20546;-68
2023/06/15 02:21:11;;;;;;;57.17;2.60;;;;;;;;;;5074251;28;20525;-68
2023/06/15 02:23:38;;;;;;;57.37;2.33;;;;;;;;;;5074327;28;20459;-69
2023/06/15 02:26:05;;;;;;;57.30;2.40;;;;;;;;;;5074253;28;20454;-69
2023/06/15 02:28:33;;;;;;;57.10;2.43;;;;;;;;;;5073485;28;20825;-68
2023/06/15 02:31:00;;;;;;;57.40;2.60;;;;;;;;;;5074072;28;20493;-68
2023/06/15 02:33:27;;;;;;;57.17;2.50;;;;;;;;;;5073779;28;20521;-69
2023/06/15 02:35:55;;;;;;;57.37;2.70;;;;;;;;;;5073845;28;20455;-69
2023/06/15 02:38:22;;;;;;;57.30;2.50;;;;;;;;;;5073918;28;20451;-69
2023/06/15 02:40:51;;;;;;;57.37;2.30;;;;;;;;;;5073196;28;20444;-68
2023/06/15 02:43:18;;;;;;;57.20;2.40;;;;;;;;;;5074127;28;20497;-68
2023/06/15 02:45:45;;;;;;;57.60;3.27;;;;;;;;;;5073989;28;20998;-69
2023/06/15 02:48:12;;;;;;;57.63;2.60;;;;;;;;;;5073892;28;20447;-69
2023/06/15 02:50:39;;;;;;;57.30;2.50;;;;;;;;;;5072462;28;20478;-68
2023/06/15 02:53:08;;;;;;;57.17;2.60;;;;;;;;;;5073473;28;20964;-68
2023/06/15 02:55:37;;;;;;;57.23;2.40;;;;;;;;;;5073461;28;20880;-68
2023/06/15 02:58:05;;;;;;;56.97;2.40;;;;;;;;;;5073469;28;20967;-69
2023/06/15 03:00:36;;;;;;;57.07;2.03;;;;;;;;;;5072410;28;20490;-69
2023/06/15 03:03:03;;;;;;;57.40;2.93;;;;;;;;;;5073166;28;20483;-68
2023/06/15 03:05:30;;;;;;;57.03;2.20;;;;;;;;;;5073353;28;20439;-69
2023/06/15 03:07:58;;;;;;;56.97;2.20;;;;;;;;;;5073867;28;20820;-68
2023/06/15 03:10:26;;;;;;;57.13;2.30;;;;;;;;;;5072365;28;20578;-68
2023/06/15 03:12:53;;;;;;;57.30;2.50;;;;;;;;;;5073291;28;20471;-68
2023/06/15 03:15:20;;;;;;;57.60;2.80;;;;;;;;;;5073214;28;20542;-69
2023/06/15 03:17:47;;;;;;;56.97;2.40;;;;;;;;;;5070980;28;20511;-69
2023/06/15 03:20:14;;;;;;;57.13;2.27;;;;;;;;;;5072287;28;20446;-68
2023/06/15 03:22:42;;;;;;;57.23;2.23;;;;;;;;;;5072556;28;20472;-69
2023/06/15 03:25:11;;;;;;;57.10;2.40;;;;;;;;;;5072847;28;20963;-68
2023/06/15 03:27:40;;;;;;;56.97;2.37;;;;;;;;;;5072990;28;20451;-68
2023/06/15 03:30:10;;;;;;;57.37;2.70;;;;;;;;;;5072259;28;20482;-69
2023/06/15 03:32:38;;;;;;;56.97;2.20;;;;;;;;;;5073121;28;20532;-66
2023/06/15 03:35:05;;;;;;;57.37;3.00;;;;;;;;;;5072908;28;20447;-68
2023/06/15 03:37:33;;;;;;;57.50;2.93;;;;;;;;;;5072574;28;20460;-69
2023/06/15 03:40:00;;;;;;;57.40;2.40;;;;;;;;;;5071974;28;20447;-69
2023/06/15 03:42:27;;;;;;;56.97;2.20;;;;;;;;;;5072821;28;20741;-69
2023/06/15 03:44:55;;;;;;;57.20;2.87;;;;;;;;;;5072903;28;20443;-68
2023/06/15 03:47:22;;;;;;;57.40;2.60;;;;;;;;;;5072297;28;20454;-69
2023/06/15 03:49:49;;;;;;;57.13;2.67;;;;;;;;;;5071436;28;20447;-69
2023/06/15 03:52:16;;;;;;;57.20;2.43;;;;;;;;;;5072475;28;20458;-69
2023/06/15 03:54:43;;;;;;;56.97;2.40;;;;;;;;;;5072406;28;20451;-69
2023/06/15 03:57:10;;;;;;;56.97;2.53;;;;;;;;;;5072258;28;20818;-68
2023/06/15 03:59:37;;;;;;;56.80;2.47;;;;;;;;;;5071537;28;20443;-68
2023/06/15 04:02:06;;;;;;;58.00;2.60;;;;;;;;;;5072270;28;20444;-69
2023/06/15 04:04:33;;;;;;;56.73;2.03;;;;;;;;;;5071983;28;20454;-69
2023/06/15 04:07:01;;;;;;;56.87;2.07;;;;;;;;;;5072327;28;20448;-69
2023/06/15 04:09:28;;;;;;;57.10;2.20;;;;;;;;;;5071489;28;20883;-69
2023/06/15 04:11:55;;;;;;;56.90;2.37;;;;;;;;;;5071751;28;20482;-69
2023/06/15 04:14:22;;;;;;;58.03;4.33;;;;;;;;;;5072107;28;20471;-68
2023/06/15 04:16:50;;;;;;;57.30;2.83;;;;;;;;;;5072074;28;20444;-69
2023/06/15 04:19:22;;;;;;;57.30;2.60;;;;;;;;;;5071159;28;20448;-69
2023/06/15 04:21:49;;;;;;;57.50;2.80;;;;;;;;;;5071822;28;20428;-69
2023/06/15 04:24:16;;;;;;;56.93;2.50;;;;;;;;;;5071633;28;21003;-69
2023/06/15 04:26:43;;;;;;;57.40;2.70;;;;;;;;;;5071876;28;20451;-69
2023/06/15 04:29:10;;;;;;;57.00;2.20;;;;;;;;;;5071302;28;20538;-68
2023/06/15 04:31:39;;;;;;;57.37;3.70;;;;;;;;;;5071444;28;20510;-69
2023/06/15 04:34:07;;;;;;;57.07;2.50;;;;;;;;;;5071891;28;20467;-68
2023/06/15 04:36:38;;;;;;;57.20;2.70;;;;;;;;;;5071682;28;20886;-69
2023/06/15 04:39:06;;;;;;;56.87;2.23;;;;;;;;;;5071187;28;20435;-69
2023/06/15 04:41:35;;;;;;;57.83;2.80;;;;;;;;;;5071573;28;20451;-69
2023/06/15 04:44:02;;;;;;;57.23;2.43;;;;;;;;;;5071293;28;20841;-69
2023/06/15 04:46:29;;;;;;;57.00;2.33;;;;;;;;;;5071571;28;20530;-69
2023/06/15 04:48:57;;;;;;;57.27;2.80;;;;;;;;;;5070958;28;20501;-68
2023/06/15 04:51:24;;;;;;;57.07;2.10;;;;;;;;;;5071562;28;20820;-69
2023/06/15 04:53:52;;;;;;;57.07;2.53;;;;;;;;;;5071454;28;20467;-69
2023/06/15 04:56:21;;;;;;;56.83;2.10;;;;;;;;;;5071082;28;20550;-69
2023/06/15 04:58:48;;;;;;;56.90;2.20;;;;;;;;;;5070821;28;20459;-69
2023/06/15 05:01:15;;;;;;;56.87;2.17;;;;;;;;;;5071456;28;20451;-69
2023/06/15 05:03:43;;;;;;;57.97;3.00;;;;;;;;;;5071340;28;20550;-69
2023/06/15 05:06:10;;;;;;;56.90;2.20;;;;;;;;;;5071407;28;20455;-69
2023/06/15 05:08:37;;;;;;;57.07;2.30;;;;;;;;;;5070859;28;20440;-69
2023/06/15 05:11:06;;;;;;;57.77;2.60;;;;;;;;;;5071027;28;20518;-68
2023/06/15 05:13:33;;;;;;;56.97;2.13;;;;;;;;;;5071211;28;20477;-69
2023/06/15 05:16:00;;;;;;;57.00;2.30;;;;;;;;;;5070953;28;20447;-68
2023/06/15 05:18:27;;;;;;;57.30;2.50;;;;;;;;;;5065460;28;20460;-69
2023/06/15 05:20:55;;;;;;;57.90;3.43;;;;;;;;;;5065694;28;20816;-68
2023/06/15 05:23:22;;;;;;;57.90;3.57;;;;;;;;;;5064777;28;20479;-69
2023/06/15 05:25:50;;;;;;;57.00;2.70;;;;;;;;;;5070428;28;20458;-69
2023/06/15 05:28:19;;;;;;;57.67;3.00;;;;;;;;;;5070846;28;20457;-69
2023/06/15 05:30:46;;;;;;;57.20;2.87;;;;;;;;;;5070346;28;20486;-69
2023/06/15 05:33:13;;;;;;;57.50;2.73;;;;;;;;;;5065114;28;20467;-69
2023/06/15 05:35:40;;;;;;;57.00;2.80;;;;;;;;;;5071157;28;20451;-69
2023/06/15 05:38:07;;;;;;;56.90;2.20;;;;;;;;;;5071009;28;20444;-69
2023/06/15 05:40:34;;;;;;;56.73;2.33;;;;;;;;;;5070511;28;20447;-69
2023/06/15 05:43:02;;;;;;;56.90;2.47;;;;;;;;;;5071083;28;20507;-67
2023/06/15 05:45:31;;;;;;;57.87;2.37;;;;;;;;;;5071289;28;20455;-67
2023/06/15 05:47:58;;;;;;;58.43;3.40;;;;;;;;;;5068649;28;20501;-67
2023/06/15 05:50:25;;;;;;;57.07;2.50;;;;;;;;;;5070229;28;20455;-67
2023/06/15 05:52:52;;;;;;;56.67;2.10;;;;;;;;;;5070867;28;20459;-67
2023/06/15 05:55:19;;;;;;;56.97;2.17;;;;;;;;;;5070477;28;20972;-67
2023/06/15 05:57:46;;;;;;;57.00;2.33;;;;;;;;;;5070891;28;20447;-67
2023/06/15 06:00:14;;;;;;;57.07;2.53;;;;;;;;;;5069885;28;20455;-67
2023/06/15 06:02:42;;;;;;;56.70;2.53;;;;;;;;;;5070758;28;20562;-67
2023/06/15 06:05:10;;;;;;;56.77;2.20;;;;;;;;;;5070423;28;20448;-67
2023/06/15 06:07:37;;;;;;;57.37;2.53;;;;;;;;;;5070768;28;20467;-67
2023/06/15 06:10:04;;;;;;;56.93;2.50;;;;;;;;;;5070104;28;20525;-67
2023/06/15 06:12:31;;;;;;;57.10;2.27;;;;;;;;;;5070353;28;21049;-67
2023/06/15 06:14:58;;;;;;;57.90;4.03;;;;;;;;;;5070795;28;20792;-66
2023/06/15 06:17:25;;;;;;;57.30;2.90;;;;;;;;;;5070482;28;20447;-67
2023/06/15 06:19:55;;;;;;;57.73;2.50;;;;;;;;;;5069878;28;20470;-67
2023/06/15 06:22:23;;;;;;;57.10;2.50;;;;;;;;;;5070580;28;20486;-67
2023/06/15 06:24:50;;;;;;;57.40;3.17;;;;;;;;;;5070433;28;20911;-66
2023/06/15 06:27:17;;;;;;;57.00;2.43;;;;;;;;;;5070594;28;20450;-67
2023/06/15 06:29:44;;;;;;;57.70;2.40;;;;;;;;;;5069998;28;20447;-66
2023/06/15 06:32:11;;;;;;;57.67;3.17;;;;;;;;;;5070599;28;20494;-67
2023/06/15 06:34:38;;;;;;;57.27;2.50;;;;;;;;;;5070810;28;20451;-67
2023/06/15 06:37:07;;;;;;;58.17;2.80;;;;;;;;;;5072322;28;20451;-67
2023/06/15 06:39:34;;;;;;;56.83;2.80;;;;;;;;;;5073369;28;20811;-67
2023/06/15 06:42:02;;;;;;;56.77;2.17;;;;;;;;;;5073887;28;20811;-67
2023/06/15 06:44:29;;;;;;;56.70;2.33;;;;;;;;;;5074133;28;20570;-67
2023/06/15 06:46:57;;;;;;;66.93;2.97;;;;;;;;;;5073508;28;20448;-66
2023/06/15 06:49:24;;;;;;;57.17;2.40;;;;;;;;;;5072883;28;20455;-67
2023/06/15 06:51:51;;;;;;;57.10;2.60;;;;;;;;;;5073712;28;20854;-67
2023/06/15 06:54:19;;;;;;;57.47;2.83;;;;;;;;;;5073841;28;20813;-68
2023/06/15 06:56:47;;;;;;;56.93;2.40;;;;;;;;;;5073446;28;20459;-67
2023/06/15 06:59:14;;;;;;;56.97;2.33;;;;;;;;;;5073006;28;20447;-67
2023/06/15 07:01:43;;;;;;;56.83;2.30;;;;;;;;;;5073508;28;20450;-67
2023/06/15 07:04:10;;;;;;;58.27;3.03;;;;;;;;;;5072268;28;20482;-67
2023/06/15 07:06:37;;;;;;;57.10;2.60;;;;;;;;;;5072796;28;20454;-67
2023/06/15 07:09:04;;;;;;;56.73;2.10;;;;;;;;;;5072511;28;20449;-66
2023/06/15 07:11:33;;;;;;;56.77;2.30;;;;;;;;;;5073674;28;20532;-67
2023/06/15 07:14:03;;;;;;;56.97;2.30;;;;;;;;;;5073227;28;20478;-68
2023/06/15 07:16:30;;;;;;;57.17;2.37;;;;;;;;;;5073154;28;20488;-67
2023/06/15 07:18:57;;;;;;;57.07;2.17;;;;;;;;;;5072661;28;20443;-67
2023/06/15 07:21:24;;;;;;;57.30;2.80;;;;;;;;;;5073045;28;20928;-67
2023/06/15 07:23:52;;;;;;;57.03;2.27;;;;;;;;;;5073063;28;20521;-67
2023/06/15 07:26:19;;;;;;;56.87;2.33;;;;;;;;;;5072993;28;20443;-67
2023/06/15 07:28:47;;;;;;;57.17;3.00;;;;;;;;;;5072103;28;21016;-67
2023/06/15 07:31:14;;;;;;;57.30;2.40;;;;;;;;;;5072947;28;20498;-67
2023/06/15 07:33:41;;;;;;;57.03;2.30;;;;;;;;;;5072889;28;20475;-67
2023/06/15 07:36:08;;;;;;;56.50;2.33;;;;;;;;;;5072892;28;20451;-67
2023/06/15 07:38:37;;;;;;;57.30;2.30;;;;;;;;;;5071965;28;20455;-67
2023/06/15 07:41:04;;;;;;;57.17;2.47;;;;;;;;;;5072797;28;20455;-67
2023/06/15 07:43:31;;;;;;;56.90;2.53;;;;;;;;;;5072693;28;20472;-67
2023/06/15 07:45:59;;;;;;;57.27;2.90;;;;;;;;;;5072762;28;20454;-67
2023/06/15 07:48:26;;;;;;;57.00;2.70;;;;;;;;;;5072193;28;20447;-67
2023/06/15 07:50:53;;;;;;;58.03;3.27;;;;;;;;;;5071713;28;20443;-67
2023/06/15 07:53:20;;;;;;;58.27;2.93;;;;;;;;;;5072545;28;20487;-67
2023/06/15 07:55:48;;;;;;;57.60;3.33;;;;;;;;;;5072158;28;20483;-67
2023/06/15 07:58:15;;;;;;;58.30;2.80;;;;;;;;;;5072508;28;20443;-67
2023/06/15 08:00:42;;;;;;;56.93;2.33;;;;;;;;;;5071734;28;20444;-68
2023/06/15 08:03:10;;;;;;;57.33;2.60;;;;;;;;;;5072443;28;20467;-67
2023/06/15 08:05:37;;;;;;;57.17;2.27;;;;;;;;;;5072199;28;20447;-67
2023/06/15 08:08:04;;;;;;;56.70;2.30;;;;;;;;;;5072020;28;20447;-67
2023/06/15 08:10:32;;;;;;;57.73;3.07;;;;;;;;;;5071587;28;20452;-67
2023/06/15 08:12:59;;;;;;;57.97;3.27;;;;;;;;;;5072076;28;20519;-67
2023/06/15 08:15:26;;;;;;;56.87;2.97;;;;;;;;;;5072049;28;20823;-69
2023/06/15 08:17:53;;;;;;;58.07;3.23;;;;;;;;;;5072175;28;20458;-68
2023/06/15 08:20:22;;;;;;;56.90;2.40;;;;;;;;;;5071180;28;20967;-68
2023/06/15 08:22:49;;;;;;;57.20;2.40;;;;;;;;;;5071877;28;20463;-68
2023/06/15 08:25:16;;;;;;;56.83;2.20;;;;;;;;;;5071848;28;20482;-68
2023/06/15 08:27:43;;;;;;;57.37;2.70;;;;;;;;;;5071981;28;20455;-68
2023/06/15 08:30:11;;;;;;;56.93;2.37;;;;;;;;;;5071227;28;20449;-68
2023/06/15 08:32:38;;;;;;;56.77;2.37;;;;;;;;;;5071690;28;20502;-68
2023/06/15 08:35:06;;;;;;;56.80;2.43;;;;;;;;;;5071560;28;20444;-68
2023/06/15 08:37:35;;;;;;;56.87;2.10;;;;;;;;;;5071581;28;20543;-68
2023/06/15 08:40:06;;;;;;;56.43;2.60;;;;;;;;;;5070960;28;20443;-68
2023/06/15 08:42:34;;;;;;;57.30;2.70;;;;;;;;;;5071523;28;20693;-69
2023/06/15 08:45:04;;;;;;;57.67;2.93;;;;;;;;;;5071352;28;20455;-69
2023/06/15 08:47:32;;;;;;;57.87;2.47;;;;;;;;;;5071527;28;20467;-67
2023/06/15 08:50:01;;;;;;;57.77;2.60;;;;;;;;;;5070587;28;20952;-68
2023/06/15 08:52:29;;;;;;;56.57;2.13;;;;;;;;;;5071384;28;20487;-66
2023/06/15 08:54:58;;;;;;;57.30;2.60;;;;;;;;;;5071675;28;20450;-66
2023/06/15 08:57:25;;;;;;;57.30;2.43;;;;;;;;;;5071386;28;20435;-66
2023/06/15 08:59:53;;;;;;;56.80;2.70;;;;;;;;;;5069806;28;20455;-66
2023/06/15 09:02:21;;;;;;;57.57;2.70;;;;;;;;;;5070901;28;20452;-66
2023/06/15 09:04:50;;;;;;;56.70;2.30;;;;;;;;;;5071183;28;20451;-66
2023/06/15 09:07:17;;;;;;;57.47;2.60;;;;;;;;;;5071504;28;20447;-66
2023/06/15 09:09:59;;;;;;;57.20;2.90;;;;;;;;;;5070783;28;20447;-66
2023/06/15 09:12:27;;;;;;;57.47;2.93;;;;;;;;;;5070644;28;20487;-66
2023/06/15 09:14:55;;;;;;;56.87;2.53;;;;;;;;;;5071109;28;20466;-66
2023/06/15 09:17:28;;;;;;;58.90;3.47;;;;;;;;;;5071151;28;20451;-66
2023/06/15 09:19:55;;;;;;;57.30;2.50;;;;;;;;;;5070582;28;20451;-66
2023/06/15 09:22:23;;;;;;;57.47;3.00;;;;;;;;;;5071157;28;20454;-66
2023/06/15 09:24:50;;;;;;;57.60;2.80;;;;;;;;;;5070968;28;20457;-66
2023/06/15 09:27:17;;;;;;;56.90;2.40;;;;;;;;;;5071010;28;20443;-66
2023/06/15 09:30:02;;;;;;;57.33;2.30;;;;;;;;;;5070406;28;20459;-66
2023/06/15 09:32:30;;;;;;;56.67;2.23;;;;;;;;;;5070789;28;20996;-66
2023/06/15 09:34:58;;;;;;;56.97;2.50;;;;;;;;;;5071155;28;20787;-66
2023/06/15 09:37:27;;;;;;;56.87;2.03;;;;;;;;;;5070785;28;20443;-66
2023/06/15 09:39:54;;;;;;;56.67;2.07;;;;;;;;;;5070018;28;20828;-66
2023/06/15 09:42:25;;;;;;;57.10;2.67;;;;;;;;;;5071070;28;20450;-66
2023/06/15 09:44:55;;;;;;;56.90;1.97;;;;;;;;;;5071135;28;20436;-66
2023/06/15 09:47:22;;;;;;;56.83;2.13;;;;;;;;;;5070701;28;20455;-68
2023/06/15 09:49:49;;;;;;;56.27;1.90;;;;;;;;;;5070094;28;20458;-68
2023/06/15 09:52:17;;;;;;;58.70;2.33;;;;;;;;;;5070505;28;20811;-68
2023/06/15 09:54:44;;;;;;;56.37;2.20;;;;;;;;;;5070772;28;20944;-68
2023/06/15 09:57:11;;;;;;;56.60;2.20;;;;;;;;;;5070597;28;20951;-68
2023/06/15 09:59:39;;;;;;;56.50;2.03;;;;;;;;;;5070258;28;20451;-68
2023/06/15 10:02:11;;;;;;;56.97;2.33;;;;;;;;;;5070791;28;20450;-68
2023/06/15 10:04:40;;;;;;;56.47;2.30;;;;;;;;;;5070702;28;20431;-69
2023/06/15 10:07:08;;;;;;;56.20;1.97;;;;;;;;;;5070448;28;20538;-68
2023/06/15 10:09:39;;;;;;;57.10;2.20;;;;;;;;;;5070149;28;20447;-69
2023/06/15 10:12:10;;;;;;;56.47;2.10;;;;;;;;;;5074236;28;20470;-68
2023/06/15 10:14:39;;;;;;;56.80;2.20;;;;;;;;;;5074365;28;20443;-68
2023/06/15 10:17:10;;;;;;;57.37;2.83;;;;;;;;;;5074454;28;20451;-68
2023/06/15 10:19:42;;;;;;;57.07;2.40;;;;;;;;;;5073761;28;20439;-69
2023/06/15 10:22:10;;;;;;;56.60;1.90;;;;;;;;;;5074408;28;20443;-69
2023/06/15 10:24:37;;;;;;;57.23;2.70;;;;;;;;;;5074290;28;20863;-69
2023/06/15 10:27:05;;;;;;;56.70;2.00;;;;;;;;;;5074118;28;20447;-69
2023/06/15 10:29:37;;;;;;;56.40;2.37;;;;;;;;;;5073822;28;20443;-69
2023/06/15 10:32:08;;;;;;;56.10;1.90;;;;;;;;;;5070319;28;20455;-68
2023/06/15 10:34:40;;;;;;;57.23;3.00;;;;;;;;;;5069482;28;20447;-69
2023/06/15 10:37:11;;;;;;;57.17;2.20;;;;;;;;;;5074314;28;20454;-69
2023/06/15 10:39:41;;;;;;;61.87;2.60;;;;;;;;;;5073194;28;20804;-69
2023/06/15 10:42:09;;;;;;;56.70;2.00;;;;;;;;;;5074055;28;20442;-68
2023/06/15 10:44:36;;;;;;;56.67;2.20;;;;;;;;;;5073960;28;20870;-69
2023/06/15 10:47:07;;;;;;;57.00;2.20;;;;;;;;;;5073784;28;20443;-69
2023/06/15 10:49:36;;;;;;;56.40;2.00;;;;;;;;;;5073079;28;20447;-69
2023/06/15 10:52:05;;;;;;;56.57;2.37;;;;;;;;;;5073898;28;20453;-68
2023/06/15 10:54:32;;;;;;;56.50;2.10;;;;;;;;;;5073574;28;20948;-69
2023/06/15 10:56:59;;;;;;;56.27;2.27;;;;;;;;;;5072545;28;20455;-68
2023/06/15 10:59:39;;;;;;;57.23;2.30;;;;;;;;;;5069412;28;20451;-69
2023/06/15 11:02:25;;;;;;;56.20;1.80;;;;;;;;;;5073216;28;20443;-69
2023/06/15 11:04:54;;;;;;;56.37;2.10;;;;;;;;;;5062288;28;20454;-69
2023/06/15 11:07:28;;;;;;;56.70;2.00;;;;;;;;;;5072944;28;20940;-69
2023/06/15 11:09:57;;;;;;;56.80;2.43;;;;;;;;;;5072800;28;20824;-66
2023/06/15 11:12:34;;;;;;;56.47;2.20;;;;;;;;;;5072855;28;20490;-66
2023/06/15 11:15:02;;;;;;;57.20;2.57;;;;;;;;;;5073052;28;20446;-69
2023/06/15 11:17:29;;;;;;;56.60;1.80;;;;;;;;;;5073120;28;20493;-67
2023/06/15 11:19:58;;;;;;;55.77;1.60;;;;;;;;;;5072768;28;20450;-66
2023/06/15 11:22:26;;;;;;;55.77;1.70;;;;;;;;;;5072340;28;20550;-66
2023/06/15 11:24:55;;;;;;;57.43;3.33;;;;;;;;;;5073071;28;20448;-66
2023/06/15 11:27:22;;;;;;;55.40;1.87;;;;;;;;;;5072804;28;20448;-67
2023/06/15 11:29:55;;;;;;;55.43;1.80;;;;;;;;;;5072231;28;20832;-67
2023/06/15 11:32:26;;;;;;;55.60;2.80;;;;;;;;;;5072830;28;20477;-67
2023/06/15 11:34:57;;;;;;;55.07;1.77;;;;;;;;;;5072832;28;20438;-67
2023/06/15 11:37:27;;;;;;;55.50;2.30;;;;;;;;;;5072831;28;20443;-68
2023/06/15 11:39:54;;;;;;;56.27;2.60;;;;;;;;;;5071981;28;20939;-67
2023/06/15 11:42:22;;;;;;;55.40;1.80;;;;;;;;;;5072690;28;20821;-67
2023/06/15 11:44:50;;;;;;;55.83;2.53;;;;;;;;;;5072728;28;20447;-67
2023/06/15 11:47:17;;;;;;;56.30;2.07;;;;;;;;;;5072919;28;20487;-67
2023/06/15 11:49:47;;;;;;;55.60;2.20;;;;;;;;;;5072025;28;20470;-67
2023/06/15 11:52:16;;;;;;;55.50;2.00;;;;;;;;;;5072338;28;20455;-67
2023/06/15 11:54:45;;;;;;;55.17;1.90;;;;;;;;;;5072410;28;20444;-67
2023/06/15 11:57:12;;;;;;;55.57;2.20;;;;;;;;;;5072167;28;20524;-67
2023/06/15 11:59:40;;;;;;;55.10;1.70;;;;;;;;;;5071893;28;20910;-67
2023/06/15 12:02:08;;;;;;;55.57;2.43;;;;;;;;;;5072463;28;20447;-67
2023/06/15 12:04:35;;;;;;;55.27;1.93;;;;;;;;;;5072624;28;20486;-68
2023/06/15 12:07:04;;;;;;;55.07;2.10;;;;;;;;;;5072232;28;20454;-67
2023/06/15 12:09:32;;;;;;;55.60;2.93;;;;;;;;;;5071499;28;20547;-66
2023/06/15 12:12:01;;;;;;;55.10;2.07;;;;;;;;;;5072053;28;20516;-67
2023/06/15 12:14:28;;;;;;;55.40;2.40;;;;;;;;;;5071931;28;20474;-67
2023/06/15 12:16:56;;;;;;;55.10;1.70;;;;;;;;;;5071933;28;20962;-67
2023/06/15 12:19:23;;;;;;;55.60;2.20;;;;;;;;;;5071332;28;20447;-67
2023/06/15 12:21:50;;;;;;;55.03;1.90;;;;;;;;;;5071843;28;20974;-67
2023/06/15 12:24:18;;;;;;;55.67;2.37;;;;;;;;;;5071607;28;20494;-67
2023/06/15 12:26:50;;;;;;;55.50;2.57;;;;;;;;;;5071676;28;20940;-67
2023/06/15 12:29:19;;;;;;;55.13;2.17;;;;;;;;;;5071334;28;20435;-67
2023/06/15 12:31:49;;;;;;;55.47;2.27;;;;;;;;;;5071960;28;20466;-67
2023/06/15 12:34:16;;;;;;;55.00;2.00;;;;;;;;;;5071756;28;20917;-67
2023/06/15 12:36:43;;;;;;;55.37;2.03;;;;;;;;;;5071616;28;20451;-67
2023/06/15 12:39:11;;;;;;;55.50;2.07;;;;;;;;;;5064962;28;20962;-67
2023/06/15 12:41:42;;;;;;;55.70;2.10;;;;;;;;;;5071691;28;20443;-67
2023/06/15 12:44:09;;;;;;;55.90;1.90;;;;;;;;;;5071463;28;20487;-67
2023/06/15 12:46:38;;;;;;;56.00;2.00;;;;;;;;;;5071457;28;20944;-66
2023/06/15 12:49:05;;;;;;;56.13;2.13;;;;;;;;;;5070748;28;20529;-67
2023/06/15 12:51:32;;;;;;;59.50;2.50;;;;;;;;;;5070875;28;20447;-67
2023/06/15 12:54:01;;;;;;;56.07;1.90;;;;;;;;;;5071704;28;20463;-69
2023/06/15 12:56:28;;;;;;;57.17;2.13;;;;;;;;;;5071181;28;20508;-69
2023/06/15 12:58:55;;;;;;;56.90;2.27;;;;;;;;;;5070783;28;20444;-66
2023/06/15 13:01:23;;;;;;;55.90;1.93;;;;;;;;;;5071332;28;20456;-66
2023/06/15 13:03:51;;;;;;;56.50;2.30;;;;;;;;;;5071324;28;20491;-67
2023/06/15 13:06:19;;;;;;;57.60;2.37;;;;;;;;;;5071215;28;20478;-67
2023/06/15 13:08:46;;;;;;;56.17;2.10;;;;;;;;;;5070303;28;20455;-67
2023/06/15 13:11:13;;;;;;;56.77;2.57;;;;;;;;;;5071093;28;20448;-67
2023/06/15 13:13:40;;;;;;;55.87;2.33;;;;;;;;;;5071432;28;20467;-70
2023/06/15 13:16:07;;;;;;;55.77;2.13;;;;;;;;;;5071020;28;20451;-70
2023/06/15 13:18:35;;;;;;;55.43;1.93;;;;;;;;;;5070298;28;20458;-67
2023/06/15 13:21:04;;;;;;;59.73;2.33;;;;;;;;;;5071163;28;20447;-67
2023/06/15 13:23:31;;;;;;;55.80;2.00;;;;;;;;;;5071005;28;21019;-67
2023/06/15 13:25:58;;;;;;;55.70;2.17;;;;;;;;;;5071260;28;20451;-69
2023/06/15 13:28:25;;;;;;;55.10;1.80;;;;;;;;;;5070917;28;20448;-69
2023/06/15 13:30:52;;;;;;;55.00;2.30;;;;;;;;;;5070788;28;20443;-69
2023/06/15 13:33:20;;;;;;;55.17;2.17;;;;;;;;;;5071271;28;20464;-69
2023/06/15 13:35:48;;;;;;;55.30;2.20;;;;;;;;;;5071348;28;20447;-69
2023/06/15 13:38:17;;;;;;;55.60;2.63;;;;;;;;;;5070940;28;20451;-67
2023/06/15 13:40:44;;;;;;;55.80;2.40;;;;;;;;;;5070248;28;20970;-67
2023/06/15 13:43:11;;;;;;;55.77;2.40;;;;;;;;;;5070984;28;20837;-67
2023/06/15 13:45:38;;;;;;;55.67;2.37;;;;;;;;;;5071931;28;20446;-67
2023/06/15 13:48:05;;;;;;;55.47;2.40;;;;;;;;;;5075032;28;20466;-67
2023/06/15 13:50:33;;;;;;;55.20;2.00;;;;;;;;;;5074023;28;20946;-67
2023/06/15 13:53:00;;;;;;;55.50;2.20;;;;;;;;;;5074882;28;20474;-67
2023/06/15 13:55:28;;;;;;;55.67;2.13;;;;;;;;;;5074598;28;20951;-67
2023/06/15 13:57:56;;;;;;;55.60;2.10;;;;;;;;;;5074928;28;20455;-66
2023/06/15 14:00:23;;;;;;;56.47;2.53;;;;;;;;;;5073793;28;20454;-66
2023/06/15 14:02:50;;;;;;;56.03;1.77;;;;;;;;;;5074772;28;20474;-67
2023/06/15 14:05:17;;;;;;;56.07;1.97;;;;;;;;;;5074569;28;20487;-67
2023/06/15 14:07:45;;;;;;;55.90;2.23;;;;;;;;;;5074473;28;20450;-67
2023/06/15 14:10:12;;;;;;;55.70;1.97;;;;;;;;;;5073738;28;20546;-66
2023/06/15 14:12:40;;;;;;;55.67;1.87;;;;;;;;;;5074182;28;20467;-69
2023/06/15 14:15:09;;;;;;;56.07;2.00;;;;;;;;;;5074249;28;20447;-69
2023/06/15 14:17:36;;;;;;;55.43;1.93;;;;;;;;;;5074316;28;20466;-69
2023/06/15 14:20:03;;;;;;;55.73;1.87;;;;;;;;;;5073511;28;20447;-69
2023/06/15 14:22:30;;;;;;;55.80;2.10;;;;;;;;;;5074169;28;20520;-68
2023/06/15 14:24:57;;;;;;;55.90;2.20;;;;;;;;;;5074073;28;20486;-69
2023/06/15 14:27:24;;;;;;;55.23;1.80;;;;;;;;;;5074126;28;20443;-67
2023/06/15 14:29:53;;;;;;;55.80;1.93;;;;;;;;;;5073305;28;20447;-67
2023/06/15 14:32:20;;;;;;;55.50;1.80;;;;;;;;;;5073755;28;20542;-67
2023/06/15 14:34:47;;;;;;;55.27;1.93;;;;;;;;;;5074151;28;20504;-67